METAR Data
IDs: Format: Raw Decoded Include TAF

Data at: 0728 UTC 08 May 2021

Region: TOP
KATL 080652Z 29007KT 10SM CLR 11/04 A3010 RMK AO2 SLP191 T01110039

KBOS 080654Z 35008KT 10SM OVC180 08/03 A2986 RMK AO2 SLP111 T00830028

KBWI 080654Z 26006KT 10SM FEW250 07/06 A2987 RMK AO2 SLP113 T00670056

KCLE 080720Z 30009KT 10SM FEW019 SCT024 OVC031 06/04 A2989 RMK AO2 T00610039

KCLT 080652Z 00000KT 10SM CLR 09/04 A3001 RMK AO2 SLP160 T00890039

KCVG 080652Z 31007KT 10SM CLR 06/01 A3002 RMK AO2 SLP165 T00560011 $

KDCA 080652Z 26006KT 10SM BKN250 08/04 A2990 RMK AO2 SLP125 T00830044

KDEN 080653Z 20014G25KT 10SM FEW160 17/02 A2975 RMK AO2 PK WND 20026/0625 SLP990 T01720022 403000067

KDFW 080653Z 19014G24KT 10SM BKN300 22/13 A2995 RMK AO2 SLP134 T02170133

KDTW 080653Z 32008KT 10SM FEW022 BKN025 04/01 A2997 RMK AO2 SLP150 T00440011

KEWR 080651Z 13006KT 10SM OVC090 12/05 A2984 RMK AO2 SLP103 T01170050

KFLL 080653Z 08005KT 10SM CLR 24/21 A2998 RMK AO2 SLP152 T02440211

KIAD 080652Z 00000KT 9SM CLR 04/03 A2988 RMK AO2 SLP119 T00390033

KIAH 080653Z 00000KT 10SM CLR 17/15 A3004 RMK AO2 SLP172 T01720150

KJFK 080651Z 09006KT 10SM BKN070 OVC095 10/06 A2986 RMK AO2 SLP109 T01000056

KLAS 080656Z 22010KT 10SM FEW150 25/M10 A2978 RMK AO2 SLP059 T02501100

KLAX 080653Z 00000KT 10SM BKN015 BKN020 16/12 A2995 RMK AO2 SLP139 T01560117 $

KLGA 080651Z 13007KT 10SM OVC090 12/01 A2984 RMK AO2 SLP103 T01170011

KMCO 080653Z 33003KT 10SM CLR 19/14 A3005 RMK AO2 SLP174 T01890144

KMDW 080653Z 36003KT 10SM FEW070 06/M01 A3010 RMK AO2 SLP196 T00561011 $

KMEM 080654Z 20005KT 10SM BKN110 OVC200 17/06 A3008 RMK AO2 RAE04 SLP184 P0000 T01720061

KMIA 080653Z 00000KT 10SM SCT034 24/22 A2999 RMK AO2 SLP154 T02390222 $

KMSP 080653Z 11007KT 10SM CLR 07/M03 A3013 RMK AO2 SLP207 T00671033

KORD 080651Z 36003KT 10SM FEW070 04/00 A3009 RMK AO2 SLP193 T00390000

KPDX 080653Z 24003KT 10SM FEW070 09/03 A3039 RMK AO2 SLP291 T00890028

KPHL 080654Z 26007KT 8SM -RA BKN011 OVC025 10/08 A2984 RMK AO2 RAB13 SLP104 P0002 T01000083

KPHX 080651Z 31008KT 10SM CLR 28/M02 A2977 RMK AO2 SLP060 T02831017 403560228

KPIT 080651Z 24005KT 10SM BKN034 BKN045 OVC100 06/03 A2985 RMK AO2 SLP120 T00610028

KSAN 080651Z 19006KT 10SM OVC020 17/11 A2998 RMK AO2 SLP150 T01720106

KSEA 080653Z 22004KT 10SM FEW025 SCT044 08/03 A3032 RMK AO2 SLP276 T00830033 401500078

KSFO 080656Z 26007KT 9SM CLR 12/07 A3002 RMK AO2 SLP166 T01220067

KSLC 080654Z 31006KT 10SM FEW110 BKN150 13/07 A2995 RMK AO2 SLP093 T01330072 403000133

KSTL 080651Z 07007KT 10SM FEW095 BKN120 14/01 A3007 RMK AO2 SLP177 T01390011

KTPA 080653Z 02005KT 10SM CLR 21/13 A3006 RMK AO2 SLP177 T02110133 $